Time;durP1;ratioP1;P1;durP2;ratioP2;P2;SDS_P1;SDS_P2;PMS_P1;PMS_P2;Temp;Humidity;BMP_temperature;BMP_pressure;BME280_temperature;BME280_humidity;BME280_pressure;Samples;Min_cycle;Max_cycle;Signal;HPM_P1;HPM_P2
2022/09/02 00:02:30;;;;;;;6.97;1.80;;;;;;;17.91;46.56;101561.50;5147984;28;20053;-71
2022/09/02 00:05:01;;;;;;;9.57;1.40;;;;;;;17.85;46.70;101556.69;5148082;28;20035;-72
2022/09/02 00:07:32;;;;;;;6.50;1.43;;;;;;;17.86;46.56;101547.78;5148026;28;20546;-71
2022/09/02 00:10:04;;;;;;;6.23;1.67;;;;;;;17.75;46.94;101549.47;5151932;29;20035;-72
2022/09/02 00:12:35;;;;;;;5.00;1.33;;;;;;;17.78;47.08;101551.06;5148040;29;20027;-72
2022/09/02 00:15:07;;;;;;;6.87;1.57;;;;;;;17.75;47.28;101549.47;5148397;29;20027;-71
2022/09/02 00:17:38;;;;;;;7.60;2.80;;;;;;;17.67;47.00;101546.59;5146792;29;20025;-72
2022/09/02 00:20:10;;;;;;;7.27;1.60;;;;;;;17.66;47.55;101545.75;5148432;29;20046;-71
2022/09/02 00:22:41;;;;;;;9.30;1.67;;;;;;;17.71;47.59;101560.44;5148162;28;20549;-72
2022/09/02 00:25:12;;;;;;;10.83;2.10;;;;;;;17.88;47.07;101549.34;5145570;29;20046;-72
2022/09/02 00:27:44;;;;;;;11.83;2.93;;;;;;;17.68;47.58;101540.31;5146274;29;20130;-72
2022/09/02 00:30:15;;;;;;;22.00;6.23;;;;;;;17.49;48.00;101543.63;5147315;29;20039;-71
2022/09/02 00:32:47;;;;;;;24.40;9.37;;;;;;;17.59;47.62;101536.63;5148509;29;20035;-72
2022/09/02 00:35:18;;;;;;;35.17;11.17;;;;;;;17.53;47.45;101531.81;5145351;29;20034;-71
2022/09/02 00:37:49;;;;;;;28.30;8.60;;;;;;;17.56;47.46;101534.19;5146557;29;20039;-71
2022/09/02 00:40:22;;;;;;;25.00;8.10;;;;;;;17.25;48.44;101541.91;5147030;28;20637;-72
2022/09/02 00:42:54;;;;;;;19.93;7.07;;;;;;;17.42;48.45;101546.72;5146425;29;20035;-72
2022/09/02 00:45:26;;;;;;;15.10;5.67;;;;;;;17.46;48.19;101543.84;5146381;28;20322;-72
2022/09/02 00:47:57;;;;;;;19.60;5.07;;;;;;;17.26;48.56;101535.66;5147262;29;20042;-72
2022/09/02 00:50:33;;;;;;;16.47;4.07;;;;;;;17.32;48.36;101539.63;5146396;29;20027;-72
2022/09/02 00:53:08;;;;;;;14.30;4.13;;;;;;;17.32;48.51;101543.13;5146681;29;20097;-71
2022/09/02 00:55:43;;;;;;;18.30;4.50;;;;;;;17.27;48.73;101542.63;5130903;29;20039;-71
2022/09/02 00:58:24;;;;;;;28.37;5.17;;;;;;;17.24;48.35;101532.28;5147759;28;20062;-72
2022/09/02 01:00:57;;;;;;;29.60;4.47;;;;;;;17.13;48.96;101535.75;5149264;28;20059;-71
2022/09/02 01:03:31;;;;;;;22.60;4.40;;;;;;;17.28;48.99;101528.41;5150455;28;20471;-72
2022/09/02 01:06:03;;;;;;;17.30;3.95;;;;;;;17.12;48.98;101524.31;5147446;29;20086;-71
2022/09/02 01:08:37;;;;;;;18.40;4.73;;;;;;;17.13;48.95;101520.72;5145259;29;20043;-72
2022/09/02 01:11:08;;;;;;;21.00;4.65;;;;;;;16.93;49.42;101514.31;5148075;28;20189;-71
2022/09/02 01:13:41;;;;;;;19.83;6.57;;;;;;;17.06;49.26;101524.78;5146967;28;20095;-72
2022/09/02 01:16:29;;;;;;;31.23;10.30;;;;;;;17.21;48.77;101521.94;5146157;29;20027;-72
2022/09/02 01:19:05;;;;;;;42.37;12.93;;;;;;;17.09;49.26;101521.88;5146414;29;20027;-71
2022/09/02 01:21:36;;;;;;;66.87;17.63;;;;;;;16.81;49.40;101519.56;5147604;28;20050;-71
2022/09/02 01:24:08;;;;;;;52.30;17.37;;;;;;;16.81;50.07;101521.34;5146404;28;20030;-72
2022/09/02 01:26:39;;;;;;;59.70;19.00;;;;;;;16.68;50.37;101522.31;5145982;29;20065;-72
2022/09/02 01:29:11;;;;;;;44.90;16.70;;;;;;;16.62;50.14;101522.75;5145740;29;20106;-71
2022/09/02 01:31:42;;;;;;;48.63;15.07;;;;;;;16.68;50.25;101522.31;5146183;29;20066;-72
2022/09/02 01:34:14;;;;;;;44.97;14.70;;;;;;;16.69;50.36;101523.97;5145171;29;20031;-72
2022/09/02 01:36:45;;;;;;;46.47;12.67;;;;;;;16.62;50.72;101514.81;5146659;29;20675;-72
2022/09/02 01:39:16;;;;;;;42.30;15.47;;;;;;;16.63;50.38;101523.59;5145217;29;20050;-72
2022/09/02 01:41:48;;;;;;;38.60;14.53;;;;;;;16.35;51.11;101497.44;5149519;28;20027;-72
2022/09/02 01:44:19;;;;;;;39.83;13.13;;;;;;;16.56;50.68;101512.63;5147927;29;20042;-71
2022/09/02 01:46:50;;;;;;;29.47;13.80;;;;;;;16.56;50.78;101510.00;5146020;29;21860;-71
2022/09/02 01:49:22;;;;;;;23.63;9.40;;;;;;;16.46;51.14;101512.47;5146825;29;20031;-72
2022/09/02 01:51:54;;;;;;;24.60;9.07;;;;;;;16.47;51.27;101513.31;5146894;28;20039;-72
2022/09/02 01:54:25;;;;;;;18.07;6.37;;;;;;;16.42;51.19;101508.38;5150204;28;20753;-72
2022/09/02 01:56:57;;;;;;;17.60;4.90;;;;;;;16.36;51.36;101507.03;5151074;29;20158;-71
2022/09/02 01:59:28;;;;;;;15.40;4.80;;;;;;;16.51;50.89;101509.50;5149339;29;20050;-72
2022/09/02 02:01:59;;;;;;;18.43;4.13;;;;;;;16.30;51.75;101503.03;5153335;29;20019;-71
2022/09/02 02:04:32;;;;;;;16.27;4.47;;;;;;;16.30;51.58;101512.78;5151202;29;20058;-71
2022/09/02 02:07:04;;;;;;;14.10;4.10;;;;;;;16.28;51.72;101510.25;5149705;29;20299;-71
2022/09/02 02:09:35;;;;;;;14.17;3.63;;;;;;;16.33;51.48;101505.47;5149556;29;20714;-71
2022/09/02 02:12:08;;;;;;;13.63;3.43;;;;;;;16.26;51.86;101503.38;5150619;28;20038;-71
2022/09/02 02:14:39;;;;;;;18.33;2.80;;;;;;;16.04;51.83;101491.75;5157283;28;20122;-71
2022/09/02 02:17:11;;;;;;;27.17;3.00;;;;;;;16.01;52.26;101491.97;5170976;28;20388;-71
2022/09/02 02:19:42;;;;;;;12.10;2.70;;;;;;;16.33;51.83;101512.53;5171074;28;20031;-71
2022/09/02 02:22:14;;;;;;;24.33;3.10;;;;;;;16.13;52.34;101511.38;5168497;28;20031;-72
2022/09/02 02:24:45;;;;;;;27.13;3.27;;;;;;;16.02;52.53;101505.09;5170089;28;20035;-71
2022/09/02 02:27:16;;;;;;;27.27;2.97;;;;;;;16.19;52.17;101510.91;5170897;28;20478;-71
2022/09/02 02:29:48;;;;;;;12.90;3.10;;;;;;;16.08;52.57;101509.06;5165471;28;20033;-71
2022/09/02 02:32:20;;;;;;;26.73;3.60;;;;;;;16.18;52.20;101509.25;5149352;29;20034;-71
2022/09/02 02:34:54;;;;;;;23.00;2.63;;;;;;;15.98;52.68;101495.66;5150887;28;20071;-71
2022/09/02 02:37:25;;;;;;;;;;;;;;;16.56;50.16;101504.72;5149312;29;20023;-71
2022/09/02 02:39:57;;;;;;;21.33;4.90;;;;;;;16.03;52.56;101492.69;5149378;29;19918;-71
2022/09/02 02:42:28;;;;;;;25.57;3.43;;;;;;;15.92;52.73;101496.06;5160933;28;20045;-71
2022/09/02 02:44:59;;;;;;;23.93;3.23;;;;;;;16.02;52.81;101496.31;5170270;28;20089;-71
2022/09/02 02:47:31;;;;;;;27.83;3.37;;;;;;;15.97;52.81;101491.31;5149811;28;20023;-71
2022/09/02 02:50:02;;;;;;;18.63;3.07;;;;;;;16.03;52.65;101492.69;5150159;29;20090;-71
2022/09/02 02:52:34;;;;;;;19.93;2.63;;;;;;;15.94;52.69;101488.88;5150242;28;20037;-71
2022/09/02 02:55:07;;;;;;;14.43;2.03;;;;;;;15.88;53.11;101492.84;5149324;29;20031;-71
2022/09/02 02:57:39;;;;;;;12.82;2.35;;;;;;;15.84;53.32;101483.44;5150882;28;20494;-71
2022/09/02 03:00:17;;;;;;;6.50;2.77;;;;;;;15.96;52.97;101492.28;5170217;28;20133;-71
2022/09/02 03:02:49;;;;;;;4.43;1.97;;;;;;;16.01;52.65;101494.59;5167736;28;20049;-71
2022/09/02 03:05:20;;;;;;;16.23;2.97;;;;;;;16.01;52.71;101487.53;5167828;28;20023;-71
2022/09/02 03:07:51;;;;;;;13.57;3.00;;;;;;;15.92;53.12;101489.00;5170079;28;20043;-71
2022/09/02 03:10:24;;;;;;;15.80;2.33;;;;;;;15.86;53.33;101484.19;5167311;28;20027;-71
2022/09/02 03:12:55;;;;;;;15.53;2.73;;;;;;;15.81;53.27;101487.13;5168729;28;20427;-71
2022/09/02 03:15:27;;;;;;;13.53;2.30;;;;;;;15.81;53.37;101481.03;5169970;28;20042;-71
2022/09/02 03:17:59;;;;;;;16.80;2.73;;;;;;;15.62;54.13;101465.66;5169798;28;20026;-71
2022/09/02 03:20:30;;;;;;;11.00;2.40;;;;;;;15.75;54.05;101476.16;5169710;28;20031;-71
2022/09/02 03:23:02;;;;;;;12.40;3.80;;;;;;;15.78;53.40;101478.63;5169016;28;20031;-73
2022/09/02 03:25:34;;;;;;;10.30;2.60;;;;;;;15.77;53.67;101474.28;5168053;28;20031;-71
2022/09/02 03:28:05;;;;;;;10.20;2.23;;;;;;;15.68;53.67;101471.34;5169234;28;20122;-71
2022/09/02 03:30:39;;;;;;;6.80;2.70;;;;;;;15.67;53.88;101474.94;5168232;28;20047;-71
2022/09/02 03:33:11;;;;;;;8.63;2.40;;;;;;;15.59;54.30;101474.63;5169474;28;20716;-71
2022/09/02 03:35:43;;;;;;;7.70;2.00;;;;;;;15.67;54.31;101474.94;5153977;28;20029;-71
2022/09/02 03:38:15;;;;;;;6.53;2.27;;;;;;;15.58;54.20;101468.53;5148486;28;20032;-71
2022/09/02 03:40:46;;;;;;;6.90;2.40;;;;;;;15.65;54.05;101470.72;5149532;29;20351;-71
2022/09/02 03:43:17;;;;;;;5.37;2.63;;;;;;;15.51;54.16;101456.72;5149099;29;20031;-71
2022/09/02 03:45:49;;;;;;;3.87;1.80;;;;;;;15.40;54.38;101448.69;5149229;28;20046;-71
2022/09/02 03:48:22;;;;;;;8.03;2.97;;;;;;;15.53;54.40;101469.81;5148711;29;20035;-72
2022/09/02 03:50:53;;;;;;;6.13;2.70;;;;;;;15.39;54.53;101453.16;5151692;28;20027;-71
2022/09/02 03:53:25;;;;;;;7.57;2.50;;;;;;;15.53;54.27;101456.59;5150807;29;20500;-71
2022/09/02 03:56:02;;;;;;;6.23;2.60;;;;;;;15.39;54.91;101460.22;5148894;28;20672;-71
2022/09/02 03:58:34;;;;;;;8.90;3.27;;;;;;;15.41;54.63;101464.44;5149121;29;20039;-71
2022/09/02 04:01:05;;;;;;;5.57;2.93;;;;;;;15.36;55.15;101456.84;5148500;28;20062;-71
2022/09/02 04:03:36;;;;;;;8.33;2.80;;;;;;;15.36;55.00;101453.34;5148711;29;20717;-71
2022/09/02 04:06:10;;;;;;;5.90;2.83;;;;;;;15.44;54.83;101458.94;5146922;28;20043;-71
2022/09/02 04:08:45;;;;;;;11.65;3.28;;;;;;;15.51;54.61;101464.63;5147319;28;20040;-71
2022/09/02 04:11:19;;;;;;;6.47;2.93;;;;;;;15.36;55.04;101456.00;5151251;28;20039;-71
2022/09/02 04:13:52;;;;;;;6.57;3.17;;;;;;;15.28;55.49;101450.41;5148166;28;20110;-71
2022/09/02 04:16:27;;;;;;;8.80;3.57;;;;;;;15.29;55.42;101455.59;5148461;28;20027;-71
2022/09/02 04:19:00;;;;;;;7.13;3.00;;;;;;;15.06;55.76;101442.19;5148383;28;20035;-71
2022/09/02 04:21:34;;;;;;;8.23;3.50;;;;;;;15.20;55.40;101449.16;5148326;29;20027;-71
2022/09/02 04:24:10;;;;;;;6.32;3.00;;;;;;;15.08;56.36;101442.13;5150189;29;20809;-72
2022/09/02 04:26:42;;;;;;;8.10;3.53;;;;;;;15.05;56.10;101444.94;5148451;28;20074;-70
2022/09/02 04:29:15;;;;;;;8.97;3.97;;;;;;;15.21;55.74;101450.00;5148601;29;20039;-75
2022/09/02 04:31:46;;;;;;;15.83;5.00;;;;;;;15.12;55.83;101443.56;5147691;28;20032;-71
2022/09/02 04:34:18;;;;;;;13.53;4.77;;;;;;;15.02;56.38;101442.53;5149257;28;20386;-71
2022/09/02 04:36:49;;;;;;;8.10;4.10;;;;;;;15.11;56.04;101432.16;5146814;28;20046;-71
2022/09/02 04:39:21;;;;;;;10.07;4.60;;;;;;;15.05;55.95;101426.50;5146758;28;20469;-71
2022/09/02 04:41:53;;;;;;;11.50;4.53;;;;;;;15.02;56.67;101435.47;5148199;28;20027;-71
2022/09/02 04:44:24;;;;;;;11.73;4.63;;;;;;;15.08;56.45;101442.13;5147469;28;20065;-70
2022/09/02 04:46:56;;;;;;;10.67;5.17;;;;;;;15.27;55.94;101440.81;5148399;29;20078;-71
2022/09/02 04:49:30;;;;;;;10.63;4.57;;;;;;;15.30;55.48;101440.59;5148308;28;20023;-71
2022/09/02 04:52:02;;;;;;;14.33;5.50;;;;;;;15.12;56.33;101438.31;5148153;28;20390;-72
2022/09/02 04:54:34;;;;;;;15.20;5.53;;;;;;;15.23;56.25;101441.06;5145609;28;20035;-70
2022/09/02 04:57:06;;;;;;;11.27;5.57;;;;;;;15.18;56.35;101447.59;5147757;28;20046;-70
2022/09/02 04:59:37;;;;;;;12.70;5.33;;;;;;;15.20;56.45;101441.25;5150527;28;20031;-69
2022/09/02 05:02:10;;;;;;;20.40;6.03;;;;;;;15.29;56.38;101439.75;5146835;28;20035;-69
2022/09/02 05:04:42;;;;;;;19.03;7.23;;;;;;;15.26;56.50;101444.41;5147360;28;20046;-74
2022/09/02 05:07:14;;;;;;;16.27;7.23;;;;;;;15.22;56.92;101438.53;5145992;28;20047;-74
2022/09/02 05:09:46;;;;;;;18.33;8.10;;;;;;;15.40;56.28;101446.91;5145115;28;20031;-70
2022/09/02 05:12:17;;;;;;;18.23;7.27;;;;;;;15.45;56.42;101439.50;5147518;28;20042;-69
2022/09/02 05:14:48;;;;;;;18.73;8.33;;;;;;;15.42;56.61;101450.28;5144745;28;20031;-68
2022/09/02 05:17:21;;;;;;;15.90;7.57;;;;;;;15.49;56.27;101445.41;5147396;28;20023;-69
2022/09/02 05:19:52;;;;;;;17.77;8.37;;;;;;;15.42;56.61;101444.16;5150580;28;20102;-69
2022/09/02 05:22:28;;;;;;;17.27;8.73;;;;;;;15.54;56.41;101445.94;5147103;28;20073;-69
2022/09/02 05:24:59;;;;;;;26.77;11.03;;;;;;;15.49;56.39;101442.78;5146959;28;20031;-70
2022/09/02 05:27:32;;;;;;;17.33;9.60;;;;;;;15.51;56.81;101438.25;5149300;28;20401;-71
2022/09/02 05:30:04;;;;;;;21.87;9.07;;;;;;;15.67;56.20;101442.41;5148542;28;20020;-70
2022/09/02 05:32:35;;;;;;;18.80;10.10;;;;;;;15.70;55.89;101443.03;5148971;28;20023;-70
2022/09/02 05:35:07;;;;;;;21.77;10.60;;;;;;;15.65;56.49;101441.69;5162115;28;20321;-70
2022/09/02 05:37:39;;;;;;;23.90;10.20;;;;;;;15.63;56.21;101436.50;5171121;28;20053;-74
2022/09/02 05:40:11;;;;;;;22.40;9.77;;;;;;;15.64;56.58;101434.72;5170439;28;20015;-70
2022/09/02 05:42:42;;;;;;;23.20;10.67;;;;;;;15.69;56.64;101446.63;5171383;28;20333;-70
2022/09/02 05:45:13;;;;;;;18.97;9.50;;;;;;;15.65;56.82;101441.69;5171469;28;20031;-73
2022/09/02 05:47:45;;;;;;;18.33;9.63;;;;;;;15.76;57.08;101438.28;5171548;28;20026;-70
2022/09/02 05:50:16;;;;;;;21.47;9.07;;;;;;;15.78;56.36;101441.66;5171001;28;20033;-72
2022/09/02 05:52:51;;;;;;;16.70;8.60;;;;;;;15.81;56.37;101438.78;5171144;28;20089;-70
2022/09/02 05:55:22;;;;;;;22.80;8.15;;;;;;;15.86;56.59;101447.22;5161329;28;20478;-70
2022/09/02 05:57:53;;;;;;;20.97;9.63;;;;;;;15.99;55.98;101441.03;5145036;28;20035;-70
2022/09/02 06:00:24;;;;;;;21.17;9.37;;;;;;;15.88;56.60;101437.38;5131662;28;20034;-71
2022/09/02 06:02:56;;;;;;;27.10;9.93;;;;;;;15.90;56.67;101438.09;5134641;28;20051;-72
2022/09/02 06:05:27;;;;;;;32.07;10.40;;;;;;;15.91;56.49;101437.16;5131982;28;20032;-71
2022/09/02 06:07:59;;;;;;;29.97;10.00;;;;;;;16.02;56.60;101438.19;5149609;28;20133;-71
2022/09/02 06:10:30;;;;;;;22.80;10.87;;;;;;;16.08;55.99;101440.34;5150293;28;20023;-69
2022/09/02 06:13:01;;;;;;;22.07;11.20;;;;;;;16.11;56.22;101445.41;5151014;28;20101;-70
2022/09/02 06:15:32;;;;;;;29.00;10.90;;;;;;;16.11;56.07;101431.38;5149706;28;20189;-70
2022/09/02 06:18:04;;;;;;;31.53;11.37;;;;;;;16.17;55.52;101438.84;5152932;28;20482;-70
2022/09/02 06:20:47;;;;;;;31.33;12.53;;;;;;;16.21;56.28;101441.13;5151142;28;20066;-71
2022/09/02 06:23:19;;;;;;;29.10;11.45;;;;;;;16.32;56.18;101440.34;5149242;28;20031;-79
2022/09/02 06:25:50;;;;;;;34.10;12.43;;;;;;;16.27;55.90;101434.53;5151025;29;20084;-70
2022/09/02 06:28:21;;;;;;;33.67;14.23;;;;;;;16.30;55.41;101433.50;5151014;29;20033;-69
2022/09/02 06:30:53;;;;;;;32.57;14.03;;;;;;;16.47;55.44;101439.28;5133496;28;20026;-71
2022/09/02 06:33:24;;;;;;;29.50;13.77;;;;;;;16.31;56.04;101424.59;5151199;28;20027;-70
2022/09/02 06:35:55;;;;;;;37.80;15.20;;;;;;;16.41;55.88;101441.44;5147670;28;20031;-70
2022/09/02 06:38:27;;;;;;;36.93;16.03;;;;;;;16.48;54.95;101431.25;5146628;28;20042;-71
2022/09/02 06:40:58;;;;;;;33.97;14.17;;;;;;;16.40;56.14;101442.41;5138713;28;20110;-71
2022/09/02 06:43:30;;;;;;;39.27;17.67;;;;;;;16.58;54.65;101436.69;5147812;28;20039;-70
2022/09/02 06:46:01;;;;;;;33.73;15.67;;;;;;;16.54;55.82;101435.22;5148794;28;20027;-69
2022/09/02 06:48:33;;;;;;;32.40;16.47;;;;;;;16.60;54.98;101440.03;5147297;28;20035;-69
2022/09/02 06:51:05;;;;;;;31.27;15.77;;;;;;;16.63;54.91;101423.97;5146613;28;20059;-69
2022/09/02 06:53:36;;;;;;;34.60;17.67;;;;;;;16.66;54.86;101429.00;5147595;29;20023;-71
2022/09/02 06:56:09;;;;;;;36.47;18.40;;;;;;;16.71;54.70;101425.16;5150007;29;20042;-70
2022/09/02 06:58:40;;;;;;;38.33;19.23;;;;;;;16.78;55.30;101426.38;5154557;28;20031;-70
2022/09/02 07:01:23;;;;;;;41.23;18.13;;;;;;;16.85;55.10;101429.38;5147226;28;20028;-70
2022/09/02 07:06:51;;;;;;;34.57;18.13;;;;;;;16.90;55.07;101425.41;5149748;28;20134;-70
2022/09/02 07:09:32;;;;;;;38.83;19.40;;;;;;;16.92;55.61;101422.66;5145844;28;20486;-70
2022/09/02 07:12:04;;;;;;;34.87;18.33;;;;;;;17.06;54.20;101424.22;5149078;28;20146;-71
2022/09/02 07:14:38;;;;;;;32.87;17.73;;;;;;;17.09;54.02;101417.84;5149157;28;20047;-70
2022/09/02 07:17:16;;;;;;;38.17;20.05;;;;;;;17.08;53.91;101418.81;5149611;28;20114;-70
2022/09/02 07:19:48;;;;;;;35.97;17.70;;;;;;;17.14;54.31;101407.78;5144747;28;20029;-70
2022/09/02 07:22:20;;;;;;;40.53;18.73;;;;;;;17.13;54.26;101419.31;5148932;29;20475;-71
2022/09/02 07:24:51;;;;;;;37.97;18.67;;;;;;;17.22;54.48;101417.75;5148284;29;20114;-71
2022/09/02 07:27:22;;;;;;;31.93;18.80;;;;;;;17.26;54.21;101413.91;5149547;29;20029;-70
2022/09/02 07:29:55;;;;;;;37.53;18.13;;;;;;;17.37;53.35;101411.22;5150090;28;20029;-70
2022/09/02 07:32:26;;;;;;;35.60;18.33;;;;;;;17.35;53.33;101402.56;5158292;28;20038;-70
2022/09/02 07:34:57;;;;;;;40.63;19.97;;;;;;;17.42;53.72;101413.50;5149268;29;20023;-70
2022/09/02 07:37:28;;;;;;;35.93;17.30;;;;;;;17.53;53.45;101415.28;5148041;29;20050;-70
2022/09/02 07:40:05;;;;;;;36.53;18.77;;;;;;;17.58;53.37;101407.81;5150467;28;20039;-72
2022/09/02 07:42:37;;;;;;;35.97;19.17;;;;;;;17.48;53.65;101412.16;5150415;28;20031;-71
2022/09/02 07:45:09;;;;;;;40.63;19.10;;;;;;;17.59;53.69;101408.66;5150803;28;20494;-71
2022/09/02 07:47:40;;;;;;;34.83;18.40;;;;;;;17.70;53.11;101410.44;5148329;29;20095;-69
2022/09/02 07:50:12;;;;;;;37.10;17.23;;;;;;;17.68;53.17;101407.06;5145557;28;20027;-70
2022/09/02 07:52:43;;;;;;;37.53;18.17;;;;;;;17.73;54.10;101404.88;5147901;29;20059;-70
2022/09/02 07:55:14;;;;;;;35.87;17.70;;;;;;;17.72;53.21;101400.53;5148836;29;20745;-69
2022/09/02 07:57:46;;;;;;;35.50;17.73;;;;;;;17.68;53.77;101402.59;5148430;29;20025;-71
2022/09/02 08:00:18;;;;;;;31.30;16.37;;;;;;;17.80;52.97;101399.91;5144890;28;20015;-71
2022/09/02 08:02:50;;;;;;;34.70;18.27;;;;;;;17.87;53.13;101409.88;5148012;29;20375;-71
2022/09/02 08:05:21;;;;;;;31.90;18.47;;;;;;;17.95;53.07;101413.69;5148467;29;20023;-71
2022/09/02 08:07:52;;;;;;;33.87;15.60;;;;;;;17.87;53.00;101401.09;5147856;29;20079;-71
2022/09/02 08:10:26;;;;;;;38.53;16.23;;;;;;;17.95;52.77;101411.06;5145712;28;20118;-71
2022/09/02 08:12:59;;;;;;;34.57;16.93;;;;;;;17.95;52.81;101392.50;5148621;29;20037;-71
2022/09/02 08:15:32;;;;;;;30.52;16.42;;;;;;;18.07;53.03;101402.09;5148186;28;20031;-71
2022/09/02 08:18:04;;;;;;;34.60;16.77;;;;;;;18.20;53.40;101393.16;5147290;29;20547;-71
2022/09/02 08:20:35;;;;;;;32.67;17.70;;;;;;;18.26;52.94;101403.22;5145810;28;20035;-71
2022/09/02 08:23:07;;;;;;;37.33;18.43;;;;;;;18.41;53.30;101398.44;5146432;29;20035;-71
2022/09/02 08:25:39;;;;;;;36.10;17.10;;;;;;;18.42;51.96;101396.63;5146292;29;20173;-71
2022/09/02 08:28:10;;;;;;;38.57;17.57;;;;;;;18.39;52.19;101389.78;5148686;28;20028;-71
2022/09/02 08:30:42;;;;;;;37.40;16.20;;;;;;;18.53;51.90;101393.91;5142737;28;20015;-71
2022/09/02 08:33:13;;;;;;;37.83;17.57;;;;;;;18.59;51.92;101390.72;5147977;29;20034;-72
2022/09/02 08:35:45;;;;;;;31.70;16.70;;;;;;;18.61;51.72;101383.47;5150763;28;20016;-72
2022/09/02 08:38:16;;;;;;;33.43;16.13;;;;;;;18.77;51.31;101384.81;5146916;29;20487;-71
2022/09/02 08:40:49;;;;;;;31.20;14.93;;;;;;;18.84;51.34;101385.09;5145679;28;20037;-71
2022/09/02 08:43:38;;;;;;;34.53;15.90;;;;;;;18.90;51.46;101383.75;5147247;28;21107;-71
2022/09/02 08:46:13;;;;;;;38.87;17.63;;;;;;;18.93;51.48;101386.13;5135797;29;20455;-71
2022/09/02 08:48:54;;;;;;;35.30;15.33;;;;;;;19.04;51.83;101379.88;5145558;28;20023;-71
2022/09/02 08:51:32;;;;;;;35.37;17.37;;;;;;;19.09;51.43;101381.13;5145038;28;20045;-71
2022/09/02 08:54:34;;;;;;;29.80;15.67;;;;;;;19.23;51.21;101377.28;5147669;28;20058;-71
2022/09/02 08:57:06;;;;;;;33.87;14.70;;;;;;;19.24;51.35;101375.47;5147782;28;20139;-72
2022/09/02 08:59:38;;;;;;;33.53;16.93;;;;;;;19.38;50.93;101389.34;5148586;28;20028;-71
2022/09/02 09:02:39;;;;;;;26.87;14.23;;;;;;;19.34;51.69;101394.94;5147743;28;20038;-71
2022/09/02 09:05:46;;;;;;;29.00;15.03;;;;;;;19.43;51.32;101387.97;5145617;28;20126;-71
2022/09/02 09:08:46;;;;;;;33.10;13.70;;;;;;;19.52;50.64;101390.75;5145828;28;20051;-71
2022/09/02 09:11:30;;;;;;;28.00;12.63;;;;;;;19.66;50.87;101389.53;5143376;28;20027;-72
2022/09/02 09:14:29;;;;;;;31.87;10.93;;;;;;;19.71;50.87;101398.75;5147707;28;20019;-71
2022/09/02 09:17:25;;;;;;;27.30;11.53;;;;;;;19.66;50.47;101382.41;5145082;28;20035;-72
2022/09/02 09:20:00;;;;;;;22.83;10.37;;;;;;;19.70;50.26;101382.97;5132256;28;20090;-71
2022/09/02 09:22:38;;;;;;;20.03;9.33;;;;;;;19.80;50.73;101383.81;5146336;28;20027;-72
2022/09/02 09:25:14;;;;;;;24.13;9.70;;;;;;;19.98;50.08;101395.53;5147453;28;20028;-71
2022/09/02 09:27:45;;;;;;;17.67;8.90;;;;;;;20.02;49.99;101391.63;5146343;29;20057;-72
2022/09/02 09:30:16;;;;;;;15.83;8.03;;;;;;;20.03;50.25;101380.84;5143057;28;20039;-71
2022/09/02 09:32:58;;;;;;;20.13;9.17;;;;;;;20.17;50.04;101382.25;5146492;28;20043;-72
2022/09/02 09:35:52;;;;;;;18.47;6.20;;;;;;;20.28;50.00;101375.94;5147297;28;20114;-71
2022/09/02 09:38:29;;;;;;;20.37;6.50;;;;;;;20.56;49.62;101383.16;5145382;29;20034;-71
2022/09/02 09:41:15;;;;;;;18.10;6.67;;;;;;;20.74;49.56;101383.22;5144404;28;20035;-71
2022/09/02 09:43:46;;;;;;;13.97;5.30;;;;;;;20.69;49.19;101372.16;5145803;28;20035;-72
2022/09/02 09:46:31;;;;;;;8.87;2.53;;;;;;;20.85;48.48;101370.69;5146618;28;20034;-71
2022/09/02 09:49:02;;;;;;;13.70;2.92;;;;;;;20.99;48.11;101361.41;5145709;28;20114;-72
2022/09/02 09:51:33;;;;;;;10.53;3.50;;;;;;;21.23;48.11;101360.00;5143057;28;20049;-71
2022/09/02 09:54:15;;;;;;;7.27;2.73;;;;;;;21.37;47.69;101362.16;5148379;29;20038;-71
2022/09/02 09:56:46;;;;;;;7.83;2.40;;;;;;;21.57;46.81;101363.84;5142977;29;20032;-72
2022/09/02 09:59:40;;;;;;;8.17;3.17;;;;;;;22.00;46.76;101372.91;5144115;28;20020;-71
2022/09/02 10:02:31;;;;;;;5.85;2.55;;;;;;;22.78;43.81;101360.72;5146654;28;20039;-71
2022/09/02 10:05:18;;;;;;;8.73;2.00;;;;;;;23.67;43.68;101349.53;5146514;28;20044;-69
2022/09/02 10:07:56;;;;;;;6.82;2.65;;;;;;;24.09;41.03;101349.50;5145878;28;20510;-70
2022/09/02 10:10:30;;;;;;;7.38;2.22;;;;;;;25.04;38.94;101343.53;5143457;28;20427;-70
2022/09/02 10:13:24;;;;;;;5.05;1.83;;;;;;;25.67;39.74;101347.97;5145690;28;20034;-71
2022/09/02 10:16:14;;;;;;;10.75;1.77;;;;;;;26.09;35.66;101355.63;5148501;28;20509;-71
2022/09/02 10:18:53;;;;;;;4.93;1.30;;;;;;;26.86;36.67;101346.53;5148996;29;20035;-71
2022/09/02 10:21:41;;;;;;;9.63;2.03;;;;;;;27.09;34.93;101332.16;5143941;28;20050;-71
2022/09/02 10:24:37;;;;;;;6.68;1.70;;;;;;;27.91;34.29;101350.66;5159346;28;20027;-71
2022/09/02 10:27:14;;;;;;;7.03;2.30;;;;;;;28.12;33.55;101336.31;5145694;29;20053;-70
2022/09/02 10:30:17;;;;;;;4.60;1.75;;;;;;;28.69;33.50;101334.53;5145567;28;20032;-71
2022/09/02 10:33:24;;;;;;;5.13;1.85;;;;;;;29.07;32.07;101322.41;5148304;28;20031;-71
2022/09/02 10:36:40;;;;;;;15.15;2.22;;;;;;;29.29;33.21;101327.66;5123066;29;20553;-72
2022/09/02 10:39:45;;;;;;;6.10;2.20;;;;;;;29.18;32.37;101316.44;5141182;28;20058;-72
2022/09/02 10:42:44;;;;;;;8.68;3.08;;;;;;;29.53;31.50;101323.50;5139212;28;20070;-72
2022/09/02 10:45:34;;;;;;;16.40;4.38;;;;;;;28.84;31.97;101315.50;5148912;28;20035;-72
2022/09/02 10:48:16;;;;;;;4.72;1.70;;;;;;;29.27;30.29;101314.34;5150136;28;20475;-71
2022/09/02 10:51:13;;;;;;;7.28;1.92;;;;;;;29.19;30.50;101318.09;5145934;28;20474;-71
2022/09/02 10:54:09;;;;;;;4.97;1.60;;;;;;;29.19;30.13;101318.09;5117233;29;20168;-72
2022/09/02 10:56:58;;;;;;;8.05;2.13;;;;;;;29.12;29.58;101301.06;5149993;28;20027;-72
2022/09/02 10:59:37;;;;;;;10.27;2.38;;;;;;;28.74;30.59;101313.19;5147319;28;20027;-71
2022/09/02 11:02:16;;;;;;;5.72;2.30;;;;;;;28.79;30.23;101302.63;5149913;28;20023;-72
2022/09/02 11:04:55;;;;;;;10.98;2.75;;;;;;;28.85;29.12;101309.91;5150037;28;20102;-70
2022/09/02 11:07:36;;;;;;;8.98;1.77;;;;;;;28.92;28.97;101293.72;5148306;28;20043;-70
2022/09/02 11:10:14;;;;;;;3.72;2.03;;;;;;;28.46;29.79;101301.50;5149252;28;20114;-72
2022/09/02 11:12:51;;;;;;;8.85;2.60;;;;;;;28.60;29.86;101302.38;5149114;28;20031;-70
2022/09/02 11:16:06;;;;;;;4.05;2.05;;;;;;;28.63;30.80;101293.06;5149554;28;20429;-70
2022/09/02 11:19:07;;;;;;;7.00;2.40;;;;;;;28.58;29.94;101287.44;5107073;29;20036;-70
2022/09/02 11:21:48;;;;;;;5.05;1.58;;;;;;;28.33;29.61;101279.88;5147764;28;20395;-71
2022/09/02 11:24:38;;;;;;;7.30;2.05;;;;;;;28.46;28.21;101271.03;5146253;28;20027;-71
2022/09/02 11:27:22;;;;;;;10.15;2.20;;;;;;;28.48;29.66;101274.38;5149341;28;20043;-71
2022/09/02 11:30:03;;;;;;;3.70;1.30;;;;;;;28.36;28.56;101258.75;5146589;28;20027;-71
2022/09/02 11:32:42;;;;;;;7.78;1.67;;;;;;;28.41;27.88;101260.88;5147587;28;20027;-71
2022/09/02 11:35:26;;;;;;;7.57;1.70;;;;;;;28.29;28.87;101268.69;5147622;29;20038;-71
2022/09/02 11:38:04;;;;;;;5.07;1.35;;;;;;;28.55;26.74;101269.84;5146606;28;20031;-71
2022/09/02 11:40:54;;;;;;;3.20;1.60;;;;;;;28.39;27.97;101265.63;5146247;28;20031;-71
2022/09/02 11:43:47;;;;;;;2.55;1.40;;;;;;;28.44;28.29;101259.63;5146582;28;20031;-71
2022/09/02 11:46:32;;;;;;;3.30;1.55;;;;;;;28.51;27.66;101257.78;5138799;29;20533;-72
2022/09/02 11:49:29;;;;;;;6.90;1.40;;;;;;;28.43;28.50;101253.44;5148543;28;20034;-71
2022/09/02 11:52:19;;;;;;;2.80;1.27;;;;;;;28.52;26.99;101258.63;5134979;29;20137;-71
2022/09/02 11:55:05;;;;;;;9.30;1.40;;;;;;;28.56;27.58;101241.84;5143761;29;20020;-72
2022/09/02 11:57:40;;;;;;;5.95;1.25;;;;;;;28.26;26.48;101244.81;5143814;28;20657;-71
2022/09/02 12:00:25;;;;;;;6.82;1.40;;;;;;;28.52;27.16;101242.47;5144344;28;20497;-72